createdAt,value
2018-07-08T00:00:21.806Z,2.53
2018-07-08T00:02:48.913Z,2.40
2018-07-08T00:05:16.049Z,2.50
2018-07-08T00:07:43.145Z,2.60
2018-07-08T00:10:10.265Z,2.77
2018-07-08T00:12:37.365Z,2.60
2018-07-08T00:15:04.566Z,2.60
2018-07-08T00:17:31.692Z,2.70
2018-07-08T00:19:58.801Z,2.80
2018-07-08T00:22:25.901Z,2.50
2018-07-08T00:24:53.005Z,2.70
2018-07-08T00:27:20.125Z,2.90
2018-07-08T00:29:47.245Z,3.67
2018-07-08T00:32:14.341Z,2.77
2018-07-08T00:34:41.445Z,3.57
2018-07-08T00:37:08.548Z,3.00
2018-07-08T00:39:35.653Z,3.03
2018-07-08T00:42:02.765Z,3.10
2018-07-08T00:44:29.898Z,3.03
2018-07-08T00:46:56.993Z,3.27
2018-07-08T00:49:24.089Z,2.90
2018-07-08T00:51:51.185Z,3.17
2018-07-08T00:54:18.285Z,3.07
2018-07-08T00:56:45.393Z,3.30
2018-07-08T00:59:12.492Z,3.17
2018-07-08T01:01:39.660Z,3.40
2018-07-08T01:04:06.767Z,2.97
2018-07-08T01:06:33.873Z,3.03
2018-07-08T01:09:00.994Z,2.73
2018-07-08T01:11:28.172Z,2.93
2018-07-08T01:13:55.264Z,2.50
2018-07-08T01:16:22.466Z,2.80
2018-07-08T01:18:49.557Z,2.70
2018-07-08T01:21:16.667Z,2.53
2018-07-08T01:23:43.769Z,2.50
2018-07-08T01:26:13.328Z,2.63
2018-07-08T01:28:41.322Z,2.67
2018-07-08T01:31:08.932Z,2.90
2018-07-08T01:33:36.222Z,2.80
2018-07-08T01:36:03.333Z,2.57
2018-07-08T01:38:30.444Z,3.03
2018-07-08T01:40:57.773Z,2.60
2018-07-08T01:43:24.884Z,2.10
2018-07-08T01:45:52.046Z,2.30
2018-07-08T01:48:19.162Z,2.50
2018-07-08T01:50:46.261Z,2.47
2018-07-08T01:53:13.686Z,2.33
2018-07-08T01:55:40.800Z,2.60
2018-07-08T01:58:07.904Z,2.80
2018-07-08T02:00:35.008Z,2.30
2018-07-08T02:03:02.103Z,2.73
2018-07-08T02:05:29.233Z,2.80
2018-07-08T02:07:56.473Z,2.57
2018-07-08T02:10:23.590Z,2.30
2018-07-08T02:12:50.717Z,2.27
2018-07-08T02:15:17.820Z,2.50
2018-07-08T02:17:45.049Z,2.50
2018-07-08T02:20:12.191Z,2.40
2018-07-08T02:22:39.468Z,2.83
2018-07-08T02:25:06.564Z,2.57
2018-07-08T02:27:33.683Z,2.50
2018-07-08T02:30:00.900Z,2.50
2018-07-08T02:32:28.044Z,2.40
2018-07-08T02:34:55.248Z,2.90
2018-07-08T02:37:22.353Z,2.60
2018-07-08T02:39:49.473Z,2.37
2018-07-08T02:42:16.598Z,2.73
2018-07-08T02:44:43.725Z,2.20
2018-07-08T02:47:10.821Z,2.73
2018-07-08T02:49:37.932Z,2.80
2018-07-08T02:52:05.068Z,3.00
2018-07-08T02:54:32.225Z,2.73
2018-07-08T02:56:59.517Z,2.57
2018-07-08T02:59:26.613Z,2.43
2018-07-08T03:01:53.706Z,2.30
2018-07-08T03:04:20.829Z,2.63
2018-07-08T03:06:47.938Z,2.30
2018-07-08T03:09:15.357Z,2.47
2018-07-08T03:11:42.865Z,2.30
2018-07-08T03:14:09.967Z,2.83
2018-07-08T03:16:37.062Z,2.90
2018-07-08T03:19:04.196Z,2.37
2018-07-08T03:21:31.320Z,2.80
2018-07-08T03:23:58.477Z,2.30
2018-07-08T03:26:25.626Z,2.43
2018-07-08T03:28:52.741Z,2.63
2018-07-08T03:31:19.836Z,2.80
2018-07-08T03:33:46.965Z,2.30
2018-07-08T03:36:14.111Z,2.50
2018-07-08T03:38:41.180Z,2.70
2018-07-08T03:41:08.298Z,2.90
2018-07-08T03:43:35.400Z,2.30
2018-07-08T03:46:02.548Z,2.70
2018-07-08T03:48:29.637Z,2.80
2018-07-08T03:50:56.880Z,2.60
2018-07-08T03:53:23.949Z,2.20
2018-07-08T03:55:51.104Z,2.40
2018-07-08T03:58:18.177Z,2.50
2018-07-08T04:00:45.330Z,2.50
2018-07-08T04:03:12.405Z,2.80
2018-07-08T04:05:39.599Z,2.63
2018-07-08T04:08:06.684Z,2.67
2018-07-08T04:10:33.796Z,2.50
2018-07-08T04:13:01.201Z,2.30
2018-07-08T04:15:28.309Z,3.27
2018-07-08T04:18:06.549Z,2.67
2018-07-08T04:20:33.666Z,2.40
2018-07-08T04:23:00.805Z,2.70
2018-07-08T04:25:27.901Z,3.03
2018-07-08T04:27:54.997Z,2.33
2018-07-08T04:30:22.159Z,2.60
2018-07-08T04:32:49.205Z,2.50
2018-07-08T04:35:16.302Z,2.53
2018-07-08T04:37:43.419Z,2.60
2018-07-08T04:40:10.589Z,2.60
2018-07-08T04:42:37.716Z,3.07
2018-07-08T04:45:04.827Z,4.60
2018-07-08T04:47:31.920Z,3.20
2018-07-08T04:49:59.023Z,2.77
2018-07-08T04:52:26.117Z,2.40
2018-07-08T04:54:53.212Z,2.30
2018-07-08T04:57:20.358Z,2.67
2018-07-08T04:59:47.453Z,2.40
2018-07-08T05:02:14.634Z,2.50
2018-07-08T05:04:41.712Z,2.50
2018-07-08T05:07:09.801Z,2.70
2018-07-08T05:09:36.912Z,2.53
2018-07-08T05:12:04.033Z,2.60
2018-07-08T05:14:31.174Z,2.80
2018-07-08T05:16:58.440Z,2.80
2018-07-08T05:19:25.529Z,2.40
2018-07-08T05:21:53.032Z,2.53
2018-07-08T05:24:20.210Z,2.70
2018-07-08T05:26:47.309Z,2.57
2018-07-08T05:29:15.380Z,2.70
2018-07-08T05:31:42.481Z,3.00
2018-07-08T05:34:09.585Z,3.10
2018-07-08T05:36:36.754Z,3.23
2018-07-08T05:39:04.998Z,2.93
2018-07-08T05:41:32.125Z,3.10
2018-07-08T05:43:59.317Z,3.20
2018-07-08T05:46:26.409Z,3.00
2018-07-08T05:48:53.500Z,3.70
2018-07-08T05:51:20.754Z,3.00
2018-07-08T05:53:47.864Z,3.30
2018-07-08T05:56:14.953Z,3.00
2018-07-08T05:58:42.073Z,3.20
2018-07-08T06:01:09.677Z,3.23
2018-07-08T06:03:36.801Z,3.30
2018-07-08T06:06:04.159Z,3.00
2018-07-08T06:08:31.262Z,3.20
2018-07-08T06:10:58.362Z,3.17
2018-07-08T06:13:25.470Z,3.17
2018-07-08T06:15:52.588Z,3.20
2018-07-08T06:18:19.681Z,2.90
2018-07-08T06:20:46.782Z,3.00
2018-07-08T06:23:13.972Z,2.97
2018-07-08T06:25:41.065Z,2.80
2018-07-08T06:28:08.167Z,2.87
2018-07-08T06:30:35.266Z,2.60
2018-07-08T06:33:02.465Z,2.57
2018-07-08T06:35:29.631Z,3.10
2018-07-08T06:37:56.741Z,2.97
2018-07-08T06:40:24.018Z,2.90
2018-07-08T06:42:51.119Z,2.77
2018-07-08T06:45:18.208Z,2.27
2018-07-08T06:47:45.332Z,2.77
2018-07-08T06:50:12.440Z,2.80
2018-07-08T06:52:39.562Z,2.40
2018-07-08T06:55:06.654Z,2.10
2018-07-08T06:57:33.802Z,2.77
2018-07-08T07:00:00.999Z,2.40
2018-07-08T07:02:28.450Z,2.50
2018-07-08T07:04:55.807Z,2.50
2018-07-08T07:07:22.968Z,2.50
2018-07-08T07:09:50.149Z,2.50
2018-07-08T07:12:17.256Z,2.00
2018-07-08T07:14:44.365Z,2.30
2018-07-08T07:17:11.477Z,2.70
2018-07-08T07:19:38.565Z,2.57
2018-07-08T07:22:05.688Z,2.23
2018-07-08T07:24:32.828Z,2.40
2018-07-08T07:26:59.954Z,2.43
2018-07-08T07:29:27.155Z,2.00
2018-07-08T07:31:54.222Z,2.00
2018-07-08T07:34:21.330Z,1.90
2018-07-08T07:36:48.481Z,2.70
2018-07-08T07:39:15.937Z,2.30
2018-07-08T07:41:43.042Z,1.90
2018-07-08T07:44:10.201Z,1.57
2018-07-08T07:46:37.339Z,2.13
2018-07-08T07:49:04.565Z,2.20
2018-07-08T07:51:31.658Z,1.80
2018-07-08T07:53:59.121Z,2.00
2018-07-08T07:56:26.365Z,2.20
2018-07-08T07:58:53.797Z,2.20
2018-07-08T08:01:20.979Z,2.30
2018-07-08T08:03:48.075Z,2.30
2018-07-08T08:06:16.728Z,2.40
2018-07-08T08:08:43.895Z,2.40
2018-07-08T08:11:10.997Z,1.93
2018-07-08T08:13:43.535Z,1.90
2018-07-08T08:16:10.833Z,1.80
2018-07-08T08:18:37.935Z,2.00
2018-07-08T08:21:05.199Z,2.20
2018-07-08T08:23:32.310Z,2.03
2018-07-08T08:25:59.433Z,2.00
2018-07-08T08:28:26.533Z,1.67
2018-07-08T08:30:53.799Z,2.10
2018-07-08T08:33:21.007Z,1.87
2018-07-08T08:35:48.105Z,2.03
2018-07-08T08:38:15.256Z,2.03
2018-07-08T08:40:42.297Z,2.10
2018-07-08T08:43:09.411Z,1.80
2018-07-08T08:45:36.502Z,1.60
2018-07-08T08:48:03.593Z,1.80
2018-07-08T08:50:30.730Z,2.10
2018-07-08T08:52:57.834Z,2.10
2018-07-08T08:55:24.932Z,2.03
2018-07-08T08:57:52.028Z,1.80
2018-07-08T09:00:20.023Z,1.83
2018-07-08T09:02:47.232Z,1.90
2018-07-08T09:05:14.434Z,1.63
2018-07-08T09:07:41.569Z,2.00
2018-07-08T09:10:08.713Z,1.93
2018-07-08T09:12:36.001Z,1.80
2018-07-08T09:15:04.009Z,1.90
2018-07-08T09:17:31.130Z,1.60
2018-07-08T09:19:58.286Z,1.60
2018-07-08T09:22:25.391Z,2.07
2018-07-08T09:24:52.490Z,2.10
2018-07-08T09:27:19.589Z,1.80
2018-07-08T09:29:46.689Z,1.37
2018-07-08T09:32:13.877Z,1.40
2018-07-08T09:34:40.984Z,1.40
2018-07-08T09:37:08.181Z,1.60
2018-07-08T09:39:35.278Z,1.50
2018-07-08T09:42:02.575Z,1.57
2018-07-08T09:44:29.673Z,1.70
2018-07-08T09:46:56.806Z,1.60
2018-07-08T09:49:23.942Z,1.50
2018-07-08T09:51:51.068Z,1.40
2018-07-08T09:54:18.225Z,1.90
2018-07-08T09:59:10.968Z,2.00
2018-07-08T10:01:40.192Z,1.43
2018-07-08T10:04:07.881Z,1.97
2018-07-08T10:06:35.215Z,1.70
2018-07-08T10:09:02.349Z,1.50
2018-07-08T10:11:29.444Z,1.60
2018-07-08T10:13:56.598Z,1.90
2018-07-08T10:16:23.674Z,1.50
2018-07-08T10:18:50.770Z,1.43
2018-07-08T10:21:17.895Z,1.50
2018-07-08T10:23:45.177Z,1.60
2018-07-08T10:26:12.298Z,1.30
2018-07-08T10:28:39.426Z,1.90
2018-07-08T10:31:12.113Z,1.50
2018-07-08T10:33:55.773Z,1.50
2018-07-08T10:36:22.876Z,1.20
2018-07-08T10:38:49.984Z,1.70
2018-07-08T10:41:17.113Z,1.47
2018-07-08T10:43:44.273Z,1.73
2018-07-08T10:46:11.384Z,1.60
2018-07-08T10:48:38.493Z,1.40
2018-07-08T10:51:05.599Z,1.37
2018-07-08T10:53:32.692Z,1.70
2018-07-08T10:55:59.801Z,1.60
2018-07-08T10:58:27.113Z,1.20
2018-07-08T11:00:54.237Z,1.27
2018-07-08T11:03:21.432Z,1.10
2018-07-08T11:05:48.513Z,1.40
2018-07-08T11:08:15.656Z,1.30
2018-07-08T11:10:42.904Z,1.30
2018-07-08T11:13:09.965Z,1.73
2018-07-08T11:15:37.065Z,1.20
2018-07-08T11:18:04.172Z,1.30
2018-07-08T11:20:31.275Z,1.63
2018-07-08T11:22:58.380Z,1.20
2018-07-08T11:25:25.521Z,1.17
2018-07-08T11:27:52.622Z,1.30
2018-07-08T11:30:19.721Z,0.93
2018-07-08T11:32:46.825Z,1.10
2018-07-08T11:35:13.992Z,1.00
2018-07-08T11:37:41.124Z,1.30
2018-07-08T11:40:08.228Z,1.27
2018-07-08T11:42:35.350Z,1.10
2018-07-08T11:45:02.606Z,1.10
2018-07-08T11:47:29.749Z,1.20
2018-07-08T11:49:57.042Z,1.10
2018-07-08T11:52:24.117Z,1.20
2018-07-08T11:54:51.231Z,1.00
2018-07-08T11:57:18.346Z,1.10
2018-07-08T11:59:45.454Z,1.10
2018-07-08T12:02:12.589Z,0.90
2018-07-08T12:04:39.715Z,1.27
2018-07-08T12:07:06.805Z,1.10
2018-07-08T12:09:33.906Z,1.10
2018-07-08T12:12:01.008Z,1.10
2018-07-08T12:14:28.543Z,1.10
2018-07-08T12:16:55.649Z,1.10
2018-07-08T12:19:22.757Z,1.20
2018-07-08T12:21:49.874Z,1.03
2018-07-08T12:24:16.992Z,1.10
2018-07-08T12:26:44.109Z,1.20
2018-07-08T12:29:11.200Z,1.07
2018-07-08T12:31:38.300Z,1.10
2018-07-08T12:34:05.441Z,1.20
2018-07-08T12:36:32.577Z,1.03
2018-07-08T12:38:59.665Z,1.20
2018-07-08T12:41:26.765Z,0.90
2018-07-08T12:43:53.865Z,1.10
2018-07-08T12:46:21.116Z,1.10
2018-07-08T12:48:48.328Z,1.20
2018-07-08T12:51:15.447Z,1.00
2018-07-08T12:53:42.595Z,1.20
2018-07-08T12:56:09.713Z,1.10
2018-07-08T12:58:36.939Z,1.20
2018-07-08T13:01:04.009Z,1.10
2018-07-08T13:03:31.102Z,1.20
2018-07-08T13:05:58.241Z,1.10
2018-07-08T13:08:25.355Z,1.13
2018-07-08T13:10:52.477Z,1.27
2018-07-08T13:13:19.592Z,1.30
2018-07-08T13:15:46.689Z,1.50
2018-07-08T13:18:13.801Z,1.10
2018-07-08T13:20:41.140Z,1.30
2018-07-08T13:23:08.257Z,1.00
2018-07-08T13:25:35.340Z,1.00
2018-07-08T13:28:02.461Z,1.20
2018-07-08T13:30:29.560Z,1.40
2018-07-08T13:32:56.689Z,1.30
2018-07-08T13:35:23.798Z,1.40
2018-07-08T13:37:50.910Z,1.40
2018-07-08T13:40:17.996Z,1.50
2018-07-08T13:42:45.104Z,1.20
2018-07-08T13:45:12.205Z,1.30
2018-07-08T13:47:39.301Z,1.47
2018-07-08T13:50:06.503Z,1.50
2018-07-08T13:52:33.631Z,1.60
2018-07-08T13:55:00.719Z,1.60
2018-07-08T13:57:27.983Z,1.50
2018-07-08T13:59:55.090Z,1.50
2018-07-08T14:02:22.197Z,1.50
2018-07-08T14:04:49.320Z,1.50
2018-07-08T14:07:16.431Z,2.10
2018-07-08T14:09:43.945Z,1.57
2018-07-08T14:12:11.033Z,1.80
2018-07-08T14:14:38.139Z,1.60
2018-07-08T14:17:05.273Z,1.77
2018-07-08T14:19:32.357Z,1.83
2018-07-08T14:21:59.469Z,1.50
2018-07-08T14:24:26.572Z,1.70
2018-07-08T14:26:53.665Z,1.80
2018-07-08T14:29:20.778Z,1.90
2018-07-08T14:31:47.905Z,1.90
2018-07-08T14:34:14.997Z,1.90
2018-07-08T14:36:42.092Z,2.00
2018-07-08T14:39:09.793Z,2.07
2018-07-08T14:41:36.912Z,1.90
2018-07-08T14:44:04.015Z,2.10
2018-07-08T14:46:31.092Z,2.00
2018-07-08T14:48:58.209Z,2.00
2018-07-08T14:51:25.300Z,2.30
2018-07-08T14:53:52.756Z,2.27
2018-07-08T14:56:19.881Z,2.30
2018-07-08T14:58:46.969Z,2.37
2018-07-08T15:01:14.065Z,1.80
2018-07-08T15:03:41.184Z,2.30
2018-07-08T15:06:08.272Z,1.90
2018-07-08T15:08:35.377Z,2.10
2018-07-08T15:11:02.477Z,2.20
2018-07-08T15:13:29.593Z,2.43
2018-07-08T15:15:56.711Z,2.00
2018-07-08T15:18:23.788Z,2.17
2018-07-08T15:20:51.008Z,2.17
2018-07-08T15:23:18.157Z,2.33
2018-07-08T15:25:45.275Z,2.27
2018-07-08T15:28:12.417Z,2.23
2018-07-08T15:30:39.682Z,2.30
2018-07-08T15:33:06.841Z,2.33
2018-07-08T15:35:33.944Z,2.40
2018-07-08T15:38:01.049Z,2.40
2018-07-08T15:40:28.140Z,2.40
2018-07-08T15:42:55.356Z,2.60
2018-07-08T15:45:22.493Z,2.30
2018-07-08T15:47:49.597Z,2.20
2018-07-08T15:50:16.690Z,2.30
2018-07-08T15:52:43.813Z,2.40
2018-07-08T15:55:11.044Z,2.30
2018-07-08T15:57:38.246Z,2.43
2018-07-08T16:00:05.391Z,2.60
2018-07-08T16:02:32.701Z,2.60
2018-07-08T16:04:59.805Z,2.60
2018-07-08T16:07:27.049Z,2.63
2018-07-08T16:09:54.277Z,2.30
2018-07-08T16:12:21.373Z,2.20
2018-07-08T16:14:48.548Z,2.57
2018-07-08T16:17:15.735Z,2.80
2018-07-08T16:19:42.951Z,2.50
2018-07-08T16:22:10.057Z,2.60
2018-07-08T16:24:37.228Z,2.37
2018-07-08T16:27:04.359Z,2.43
2018-07-08T16:29:31.450Z,2.90
2018-07-08T16:31:59.281Z,2.73
2018-07-08T16:34:26.777Z,2.83
2018-07-08T16:36:53.922Z,2.50
2018-07-08T16:39:21.115Z,2.67
2018-07-08T16:41:48.221Z,2.90
2018-07-08T16:44:15.337Z,2.80
2018-07-08T16:46:42.516Z,2.87
2018-07-08T16:49:09.793Z,2.77
2018-07-08T16:51:36.889Z,2.83
2018-07-08T16:54:04.000Z,2.87
2018-07-08T16:56:31.302Z,3.10
2018-07-08T16:58:58.472Z,2.90
2018-07-08T17:01:25.590Z,3.10
2018-07-08T17:03:52.717Z,2.63
2018-07-08T17:06:19.935Z,3.37
2018-07-08T17:08:47.045Z,2.97
2018-07-08T17:11:14.141Z,2.80
2018-07-08T17:13:41.291Z,2.80
2018-07-08T17:16:08.436Z,2.90
2018-07-08T17:18:35.671Z,2.70
2018-07-08T17:21:04.070Z,2.67
2018-07-08T17:23:34.024Z,2.77
2018-07-08T17:26:01.142Z,2.50
2018-07-08T17:28:28.253Z,2.70
2018-07-08T17:30:55.379Z,2.60
2018-07-08T17:33:22.555Z,2.53
2018-07-08T17:35:49.568Z,2.90
2018-07-08T17:38:16.684Z,2.57
2018-07-08T17:40:43.798Z,2.80
2018-07-08T17:43:11.068Z,2.67
2018-07-08T17:45:38.148Z,2.70
2018-07-08T17:48:05.329Z,2.57
2018-07-08T17:50:32.457Z,2.70
2018-07-08T17:52:59.604Z,2.63
2018-07-08T17:55:26.675Z,2.80
2018-07-08T17:57:53.857Z,2.60
2018-07-08T18:00:20.961Z,2.97
2018-07-08T18:02:48.057Z,2.80
2018-07-08T18:05:15.152Z,2.23
2018-07-08T18:07:42.278Z,2.67
2018-07-08T18:10:09.394Z,2.40
2018-07-08T18:12:36.702Z,2.53
2018-07-08T18:15:03.819Z,2.60
2018-07-08T18:17:30.917Z,2.60
2018-07-08T18:19:58.010Z,2.30
2018-07-08T18:22:25.121Z,2.00
2018-07-08T18:24:52.233Z,2.40
2018-07-08T18:27:19.337Z,2.33
2018-07-08T18:29:46.453Z,2.50
2018-07-08T18:32:13.573Z,2.40
2018-07-08T18:34:40.685Z,3.00
2018-07-08T18:37:07.805Z,2.30
2018-07-08T18:39:35.212Z,2.60
2018-07-08T18:42:02.525Z,2.50
2018-07-08T18:44:29.617Z,2.58
2018-07-08T18:46:56.785Z,2.50
2018-07-08T18:49:24.590Z,2.40
2018-07-08T18:51:51.709Z,2.23
2018-07-08T18:54:18.829Z,2.30
2018-07-08T18:56:45.953Z,2.50
2018-07-08T18:59:13.141Z,2.50
2018-07-08T19:01:40.305Z,2.30
2018-07-08T19:04:07.414Z,2.30
2018-07-08T19:06:34.529Z,2.50
2018-07-08T19:09:01.629Z,2.10
2018-07-08T19:11:29.897Z,2.40
2018-07-08T19:13:57.019Z,2.47
2018-07-08T19:16:24.167Z,2.30
2018-07-08T19:18:51.248Z,2.40
2018-07-08T19:21:18.354Z,2.20
2018-07-08T19:23:45.546Z,2.40
2018-07-08T19:26:12.673Z,2.80
2018-07-08T19:28:39.796Z,2.90
2018-07-08T19:31:07.055Z,3.43
2018-07-08T19:33:34.306Z,3.43
2018-07-08T19:36:01.961Z,3.10
2018-07-08T19:38:29.264Z,2.70
2018-07-08T19:40:56.390Z,2.90
2018-07-08T19:43:23.545Z,2.53
2018-07-08T19:45:50.733Z,2.70
2018-07-08T19:48:17.947Z,2.70
2018-07-08T19:50:45.500Z,2.50
2018-07-08T19:53:12.617Z,2.87
2018-07-08T19:55:39.789Z,2.87
2018-07-08T19:58:06.923Z,2.50
2018-07-08T20:00:34.039Z,2.60
2018-07-08T20:03:03.320Z,2.50
2018-07-08T20:05:30.886Z,2.40
2018-07-08T20:07:58.005Z,2.50
2018-07-08T20:10:25.149Z,2.70
2018-07-08T20:12:52.280Z,2.90
2018-07-08T20:15:19.397Z,2.50
2018-07-08T20:17:46.520Z,2.40
2018-07-08T20:20:13.621Z,2.70
2018-07-08T20:22:40.748Z,2.80
2018-07-08T20:25:08.517Z,2.90
2018-07-08T20:27:35.660Z,2.70
2018-07-08T20:30:02.790Z,2.43
2018-07-08T20:32:29.981Z,2.73
2018-07-08T20:34:57.108Z,2.80
2018-07-08T20:37:24.220Z,2.63
2018-07-08T20:39:51.417Z,2.60
2018-07-08T20:42:18.571Z,2.80
2018-07-08T20:44:45.672Z,2.60
2018-07-08T20:47:12.805Z,2.70
2018-07-08T20:49:39.913Z,2.67
2018-07-08T20:52:07.102Z,2.60
2018-07-08T20:54:34.220Z,3.10
2018-07-08T20:57:01.341Z,2.83
2018-07-08T20:59:28.469Z,2.90
2018-07-08T21:01:55.569Z,2.60
2018-07-08T21:04:22.753Z,2.70
2018-07-08T21:06:49.977Z,2.30
2018-07-08T21:09:17.085Z,2.63
2018-07-08T21:11:44.189Z,2.50
2018-07-08T21:14:11.308Z,2.37
2018-07-08T21:16:38.428Z,2.60
2018-07-08T21:19:05.868Z,3.10
2018-07-08T21:21:33.009Z,2.60
2018-07-08T21:24:00.138Z,2.67
2018-07-08T21:26:27.234Z,2.90
2018-07-08T21:28:54.349Z,2.70
2018-07-08T21:31:21.454Z,2.70
2018-07-08T21:33:48.537Z,3.03
2018-07-08T21:36:15.647Z,2.80
2018-07-08T21:38:43.480Z,2.50
2018-07-08T21:41:10.592Z,2.50
2018-07-08T21:43:37.689Z,2.90
2018-07-08T21:46:04.826Z,2.40
2018-07-08T21:48:31.929Z,3.03
2018-07-08T21:50:59.041Z,3.00
2018-07-08T21:53:26.136Z,3.03
2018-07-08T21:55:53.245Z,2.73
2018-07-08T21:58:20.328Z,2.97
2018-07-08T22:00:52.859Z,2.53
2018-07-08T22:03:19.970Z,2.67
2018-07-08T22:05:47.077Z,2.57
2018-07-08T22:08:14.202Z,2.60
2018-07-08T22:10:41.306Z,2.77
2018-07-08T22:13:08.407Z,2.57
2018-07-08T22:15:35.541Z,3.10
2018-07-08T22:18:02.617Z,3.30
2018-07-08T22:20:29.717Z,3.13
2018-07-08T22:22:56.834Z,2.93
2018-07-08T22:25:24.017Z,2.93
2018-07-08T22:27:51.116Z,2.93
2018-07-08T22:30:18.219Z,2.83
2018-07-08T22:32:45.312Z,3.03
2018-07-08T22:35:12.510Z,2.80
2018-07-08T22:37:39.623Z,3.37
2018-07-08T22:40:06.992Z,3.10
2018-07-08T22:42:34.107Z,3.17
2018-07-08T22:45:01.245Z,3.03
2018-07-08T22:47:28.358Z,3.30
2018-07-08T22:49:55.473Z,3.73
2018-07-08T22:52:22.566Z,4.30
2018-07-08T22:54:49.685Z,5.57
2018-07-08T22:57:16.777Z,5.97
2018-07-08T22:59:49.481Z,5.40
2018-07-08T23:02:22.185Z,4.90
2018-07-08T23:04:49.284Z,3.53
2018-07-08T23:07:16.403Z,3.50
2018-07-08T23:09:43.541Z,3.30
2018-07-08T23:12:10.714Z,3.40
2018-07-08T23:14:37.761Z,3.27
2018-07-08T23:17:04.861Z,3.07
2018-07-08T23:19:31.981Z,3.47
2018-07-08T23:21:59.100Z,3.87
2018-07-08T23:24:26.189Z,3.80
2018-07-08T23:26:53.369Z,3.70
2018-07-08T23:29:20.476Z,4.07
2018-07-08T23:31:47.671Z,4.33
2018-07-08T23:34:14.721Z,4.03
2018-07-08T23:36:41.824Z,4.03
2018-07-08T23:39:08.928Z,3.80
2018-07-08T23:41:36.048Z,3.30
2018-07-08T23:44:03.144Z,3.37
2018-07-08T23:46:30.254Z,3.53
2018-07-08T23:48:57.362Z,3.40
2018-07-08T23:51:24.480Z,3.20
2018-07-08T23:53:51.702Z,3.37
2018-07-08T23:56:18.778Z,3.30
2018-07-08T23:58:45.897Z,3.50
